Time;durP1;ratioP1;P1;durP2;ratioP2;P2;SDS_P1;SDS_P2;PMS_P1;PMS_P2;Temp;Humidity;BMP_temperature;BMP_pressure;BME280_temperature;BME280_humidity;BME280_pressure;Samples;Min_cycle;Max_cycle;Signal;HPM_P1;HPM_P2
2022/03/29 00:01:39;;;;;;;12.82;11.40;;;;;;;;;;4803582;29;20058;-83
2022/03/29 00:04:05;;;;;;;12.70;10.57;;;;;;;;;;4825032;29;20504;-83
2022/03/29 00:06:31;;;;;;;12.27;10.63;;;;;;;;;;4805666;29;20096;-83
2022/03/29 00:08:58;;;;;;;15.52;11.85;;;;;;;;;;4823494;29;20499;-84
2022/03/29 00:11:24;;;;;;;14.73;11.60;;;;;;;;;;4821893;29;20424;-83
2022/03/29 00:13:51;;;;;;;13.65;11.63;;;;;;;;;;4806524;29;20058;-83
2022/03/29 00:16:17;;;;;;;13.50;12.10;;;;;;;;;;4805334;29;20045;-82
2022/03/29 00:18:43;;;;;;;15.82;12.27;;;;;;;;;;4804905;29;20145;-83
2022/03/29 00:21:10;;;;;;;13.15;11.73;;;;;;;;;;4807648;29;20488;-83
2022/03/29 00:23:36;;;;;;;15.90;12.02;;;;;;;;;;4826161;29;20058;-83
2022/03/29 00:26:03;;;;;;;15.45;12.18;;;;;;;;;;4823775;29;20266;-82
2022/03/29 00:28:29;;;;;;;16.30;13.25;;;;;;;;;;4805210;29;20111;-83
2022/03/29 00:30:55;;;;;;;13.95;12.45;;;;;;;;;;4821937;29;20051;-84
2022/03/29 00:33:21;;;;;;;17.67;13.23;;;;;;;;;;4806769;29;21216;-83
2022/03/29 00:35:47;;;;;;;14.95;13.40;;;;;;;;;;4824634;29;20088;-83
2022/03/29 00:38:14;;;;;;;15.98;14.18;;;;;;;;;;4820282;29;20796;-83
2022/03/29 00:40:40;;;;;;;16.50;13.68;;;;;;;;;;4821952;29;20046;-83
2022/03/29 00:43:08;;;;;;;15.73;14.00;;;;;;;;;;4806208;29;20403;-83
2022/03/29 00:45:34;;;;;;;14.27;12.77;;;;;;;;;;4821881;29;20077;-83
2022/03/29 00:48:02;;;;;;;15.65;13.95;;;;;;;;;;4824281;29;20098;-83
2022/03/29 00:50:28;;;;;;;18.40;14.27;;;;;;;;;;4805518;29;20671;-83
2022/03/29 00:52:54;;;;;;;16.17;13.68;;;;;;;;;;4823708;29;20054;-83
2022/03/29 00:55:20;;;;;;;16.33;14.32;;;;;;;;;;4818607;29;20125;-83
2022/03/29 00:57:47;;;;;;;17.35;14.70;;;;;;;;;;4806686;29;20479;-82
2022/03/29 01:00:14;;;;;;;16.05;14.05;;;;;;;;;;4821994;29;20050;-83
2022/03/29 01:02:41;;;;;;;15.50;13.88;;;;;;;;;;4819776;29;20046;-83
2022/03/29 01:05:07;;;;;;;18.95;14.15;;;;;;;;;;4806498;29;20052;-83
2022/03/29 01:07:33;;;;;;;15.35;13.55;;;;;;;;;;4821634;29;20130;-83
2022/03/29 01:10:01;;;;;;;15.55;13.90;;;;;;;;;;4822305;29;20049;-83
2022/03/29 01:12:28;;;;;;;16.17;13.68;;;;;;;;;;4805603;29;20070;-83
2022/03/29 01:14:54;;;;;;;16.25;13.50;;;;;;;;;;4822548;29;20059;-83
2022/03/29 01:17:39;;;;;;;15.82;13.55;;;;;;;;;;4818975;29;20050;-83
2022/03/29 01:20:08;;;;;;;16.65;14.00;;;;;;;;;;4824207;29;20115;-83
2022/03/29 01:22:35;;;;;;;15.48;13.68;;;;;;;;;;4818269;29;20204;-82
2022/03/29 01:25:01;;;;;;;16.75;13.73;;;;;;;;;;4822523;29;20042;-83
2022/03/29 01:27:31;;;;;;;16.25;13.93;;;;;;;;;;4805544;29;20141;-83
2022/03/29 01:29:59;;;;;;;17.85;15.57;;;;;;;;;;4803341;29;20074;-83
2022/03/29 01:32:29;;;;;;;17.92;14.93;;;;;;;;;;4804686;29;20054;-83
2022/03/29 01:34:57;;;;;;;18.85;16.83;;;;;;;;;;4821194;29;20081;-83
2022/03/29 01:37:23;;;;;;;19.17;15.77;;;;;;;;;;4804942;29;20097;-83
2022/03/29 01:39:49;;;;;;;18.83;16.48;;;;;;;;;;4821753;29;20118;-83
2022/03/29 01:42:15;;;;;;;19.75;15.65;;;;;;;;;;4822491;29;20453;-83
2022/03/29 01:44:41;;;;;;;17.75;15.82;;;;;;;;;;4823001;29;20099;-82
2022/03/29 01:47:07;;;;;;;20.60;15.80;;;;;;;;;;4816548;29;20038;-82
2022/03/29 01:49:34;;;;;;;17.63;15.65;;;;;;;;;;4822419;29;20053;-83
2022/03/29 01:52:01;;;;;;;18.25;14.60;;;;;;;;;;4803011;29;20055;-81
2022/03/29 01:54:27;;;;;;;17.17;13.68;;;;;;;;;;4806095;29;20137;-83
2022/03/29 01:56:53;;;;;;;17.10;13.52;;;;;;;;;;4823670;29;20039;-83
2022/03/29 01:59:19;;;;;;;15.40;13.50;;;;;;;;;;4822608;29;20050;-82
2022/03/29 02:01:46;;;;;;;15.18;13.07;;;;;;;;;;4820511;29;20046;-82
2022/03/29 02:04:13;;;;;;;15.40;13.00;;;;;;;;;;4820939;29;20082;-82
2022/03/29 02:06:39;;;;;;;16.45;13.45;;;;;;;;;;4800690;29;20082;-82
2022/03/29 02:09:06;;;;;;;17.38;13.77;;;;;;;;;;4822910;29;20050;-82
2022/03/29 02:11:32;;;;;;;18.70;14.45;;;;;;;;;;4822710;29;20045;-82
2022/03/29 02:13:59;;;;;;;18.45;14.30;;;;;;;;;;4801547;29;20053;-82
2022/03/29 02:16:25;;;;;;;17.13;14.93;;;;;;;;;;4804501;29;20054;-83
2022/03/29 02:18:54;;;;;;;17.23;13.98;;;;;;;;;;4805451;29;20137;-83
2022/03/29 02:21:20;;;;;;;18.10;14.60;;;;;;;;;;4801643;29;20106;-83
2022/03/29 02:23:46;;;;;;;17.73;14.25;;;;;;;;;;4821668;29;20046;-82
2022/03/29 02:26:12;;;;;;;20.02;14.80;;;;;;;;;;4805492;29;20042;-83
2022/03/29 02:28:39;;;;;;;17.80;13.70;;;;;;;;;;4806010;29;20075;-82
2022/03/29 02:31:05;;;;;;;16.77;14.07;;;;;;;;;;4823322;29;20054;-82
2022/03/29 02:33:31;;;;;;;19.90;14.45;;;;;;;;;;4822111;29;20464;-83
2022/03/29 02:35:57;;;;;;;19.02;13.40;;;;;;;;;;4806390;29;20054;-82
2022/03/29 02:38:23;;;;;;;17.67;14.27;;;;;;;;;;4805620;29;20050;-82
2022/03/29 02:40:49;;;;;;;15.98;13.93;;;;;;;;;;4822095;29;20486;-82
2022/03/29 02:43:15;;;;;;;18.98;15.13;;;;;;;;;;4805351;29;20133;-82
2022/03/29 02:45:41;;;;;;;15.77;14.07;;;;;;;;;;4821587;29;20057;-82
2022/03/29 02:48:07;;;;;;;17.48;14.75;;;;;;;;;;4805032;29;20046;-82
2022/03/29 02:50:34;;;;;;;19.67;14.82;;;;;;;;;;4821305;29;20046;-82
2022/03/29 02:53:02;;;;;;;16.25;14.02;;;;;;;;;;4806608;29;20073;-83
2022/03/29 02:55:29;;;;;;;18.05;14.95;;;;;;;;;;4819894;29;20103;-83
2022/03/29 02:57:56;;;;;;;18.65;14.85;;;;;;;;;;4820724;29;20540;-82
2022/03/29 03:00:22;;;;;;;17.75;14.07;;;;;;;;;;4819412;29;20050;-82
2022/03/29 03:02:49;;;;;;;18.40;14.15;;;;;;;;;;4788472;29;20050;-82
2022/03/29 03:05:16;;;;;;;19.67;14.65;;;;;;;;;;4820064;29;20133;-83
2022/03/29 03:07:43;;;;;;;17.13;14.27;;;;;;;;;;4806038;29;20105;-82
2022/03/29 03:10:09;;;;;;;17.90;14.00;;;;;;;;;;4804623;29;20054;-82
2022/03/29 03:12:38;;;;;;;18.67;14.32;;;;;;;;;;4806573;29;20431;-82
2022/03/29 03:15:05;;;;;;;17.17;14.65;;;;;;;;;;4805127;29;20194;-82
2022/03/29 03:17:31;;;;;;;17.77;14.70;;;;;;;;;;4819608;29;20042;-83
2022/03/29 03:19:57;;;;;;;16.65;14.25;;;;;;;;;;4818475;29;20563;-83
2022/03/29 03:22:23;;;;;;;17.83;15.07;;;;;;;;;;4804549;29;20130;-83
2022/03/29 03:24:50;;;;;;;18.73;14.70;;;;;;;;;;4821286;29;20408;-83
2022/03/29 03:27:16;;;;;;;18.95;15.55;;;;;;;;;;4819765;29;20042;-82
2022/03/29 03:29:42;;;;;;;19.40;15.35;;;;;;;;;;4805363;29;20046;-82
2022/03/29 03:32:09;;;;;;;18.77;15.75;;;;;;;;;;4799905;29;20473;-83
2022/03/29 03:34:35;;;;;;;18.80;15.35;;;;;;;;;;4819575;29;20060;-82
2022/03/29 03:37:04;;;;;;;18.33;15.05;;;;;;;;;;4803389;29;20042;-82
2022/03/29 03:39:33;;;;;;;17.48;15.02;;;;;;;;;;4804297;29;20589;-82
2022/03/29 03:41:59;;;;;;;19.13;15.93;;;;;;;;;;4804759;29;20057;-83
2022/03/29 03:44:25;;;;;;;19.88;15.35;;;;;;;;;;4805232;29;20050;-82
2022/03/29 03:46:55;;;;;;;18.60;15.07;;;;;;;;;;4802027;29;20400;-83
2022/03/29 03:49:21;;;;;;;18.15;14.75;;;;;;;;;;4818962;29;20118;-82
2022/03/29 03:51:47;;;;;;;18.77;14.60;;;;;;;;;;4807113;29;20411;-82
2022/03/29 03:54:13;;;;;;;18.58;14.65;;;;;;;;;;4804642;29;20290;-83
2022/03/29 03:56:39;;;;;;;19.58;15.30;;;;;;;;;;4824594;29;20137;-82
2022/03/29 03:59:05;;;;;;;17.95;14.27;;;;;;;;;;4823393;29;20083;-82
2022/03/29 04:01:32;;;;;;;19.42;15.40;;;;;;;;;;4819907;29;20058;-82
2022/03/29 04:03:57;;;;;;;19.00;15.55;;;;;;;;;;4822942;29;20080;-82
2022/03/29 04:06:24;;;;;;;17.98;14.93;;;;;;;;;;4823714;29;20049;-82
2022/03/29 04:08:50;;;;;;;23.00;15.23;;;;;;;;;;4808591;29;20054;-82
2022/03/29 04:11:16;;;;;;;18.50;15.30;;;;;;;;;;4824426;29;20095;-82
2022/03/29 04:13:42;;;;;;;18.27;15.25;;;;;;;;;;4823339;29;20050;-82
2022/03/29 04:16:08;;;;;;;20.02;15.27;;;;;;;;;;4807441;29;20472;-82
2022/03/29 04:18:34;;;;;;;18.08;14.73;;;;;;;;;;4825099;29;20126;-82
2022/03/29 04:21:01;;;;;;;21.23;14.88;;;;;;;;;;4823396;29;20054;-82
2022/03/29 04:23:27;;;;;;;24.20;15.32;;;;;;;;;;4808898;29;20129;-83
2022/03/29 04:25:54;;;;;;;20.20;15.48;;;;;;;;;;4806450;29;20039;-82
2022/03/29 04:28:20;;;;;;;23.50;15.85;;;;;;;;;;4806565;29;20074;-82
2022/03/29 04:30:46;;;;;;;20.20;15.52;;;;;;;;;;4823902;29;20129;-82
2022/03/29 04:33:12;;;;;;;20.83;16.20;;;;;;;;;;4804730;29;20050;-83
2022/03/29 04:35:38;;;;;;;20.30;15.02;;;;;;;;;;4823323;29;20050;-83
2022/03/29 04:38:04;;;;;;;20.58;15.63;;;;;;;;;;4807693;29;20194;-82
2022/03/29 04:40:30;;;;;;;22.02;15.32;;;;;;;;;;4821741;29;20050;-82
2022/03/29 04:43:00;;;;;;;22.60;16.25;;;;;;;;;;4824864;29;20046;-83
2022/03/29 04:45:26;;;;;;;21.48;17.00;;;;;;;;;;4809002;29;20057;-82
2022/03/29 04:47:52;;;;;;;21.10;16.08;;;;;;;;;;4826758;29;20054;-83
2022/03/29 04:50:18;;;;;;;21.48;17.50;;;;;;;;;;4807733;29;20118;-82
2022/03/29 04:52:46;;;;;;;21.33;17.10;;;;;;;;;;4807318;29;20074;-82
2022/03/29 04:55:12;;;;;;;21.63;16.85;;;;;;;;;;4822310;29;20391;-83
2022/03/29 04:57:41;;;;;;;22.48;17.20;;;;;;;;;;4807341;29;20510;-82
2022/03/29 05:00:07;;;;;;;21.05;16.60;;;;;;;;;;4822146;29;20099;-83
2022/03/29 05:02:35;;;;;;;22.15;17.00;;;;;;;;;;4821299;29;20488;-82
2022/03/29 05:05:02;;;;;;;22.98;17.98;;;;;;;;;;4823014;29;20070;-82
2022/03/29 05:07:28;;;;;;;22.92;17.42;;;;;;;;;;4822710;29;20133;-83
2022/03/29 05:09:55;;;;;;;22.73;17.15;;;;;;;;;;4805276;29;20054;-83
2022/03/29 05:12:21;;;;;;;20.55;17.13;;;;;;;;;;4806920;29;20059;-83
2022/03/29 05:14:47;;;;;;;25.60;18.20;;;;;;;;;;4823222;29;20141;-83
2022/03/29 05:17:13;;;;;;;22.67;17.75;;;;;;;;;;4822751;29;20113;-83
2022/03/29 05:19:39;;;;;;;24.77;17.63;;;;;;;;;;4803231;29;20135;-83
2022/03/29 05:22:05;;;;;;;22.80;17.60;;;;;;;;;;4821018;29;20064;-83
2022/03/29 05:24:32;;;;;;;23.95;17.85;;;;;;;;;;4803445;29;20049;-84
2022/03/29 05:26:58;;;;;;;22.77;17.15;;;;;;;;;;4822840;29;20054;-83
2022/03/29 05:29:25;;;;;;;24.20;18.50;;;;;;;;;;4805176;29;20437;-82
2022/03/29 05:31:51;;;;;;;21.73;17.85;;;;;;;;;;4821917;29;20049;-83
2022/03/29 05:34:17;;;;;;;24.33;17.42;;;;;;;;;;4821742;29;20050;-83
2022/03/29 05:36:45;;;;;;;27.15;19.15;;;;;;;;;;4805783;29;20491;-83
2022/03/29 05:39:14;;;;;;;22.85;17.92;;;;;;;;;;4821196;29;20046;-84
2022/03/29 05:41:42;;;;;;;26.23;18.70;;;;;;;;;;4822767;29;20084;-83
2022/03/29 05:44:07;;;;;;;26.15;18.45;;;;;;;;;;4823756;29;20038;-83
2022/03/29 05:49:21;;;;;;;26.23;18.40;;;;;;;;;;4822665;29;20050;-83
2022/03/29 05:51:49;;;;;;;28.83;17.92;;;;;;;;;;4821406;29;20817;-82
2022/03/29 05:54:17;;;;;;;27.35;18.67;;;;;;;;;;4822649;29;20504;-83
2022/03/29 05:56:43;;;;;;;24.63;18.08;;;;;;;;;;4818841;29;20054;-83
2022/03/29 05:59:10;;;;;;;26.67;19.52;;;;;;;;;;4803264;29;20118;-81
2022/03/29 06:01:36;;;;;;;24.38;19.23;;;;;;;;;;4819653;29;20058;-83
2022/03/29 06:04:06;;;;;;;26.10;19.20;;;;;;;;;;4823568;29;20042;-83
2022/03/29 06:06:33;;;;;;;27.55;20.17;;;;;;;;;;4814194;29;20060;-84
2022/03/29 06:08:59;;;;;;;28.25;19.60;;;;;;;;;;4820207;29;20103;-83
2022/03/29 06:11:25;;;;;;;26.30;19.80;;;;;;;;;;4822008;29;20392;-83
2022/03/29 06:13:54;;;;;;;28.38;19.05;;;;;;;;;;4820972;29;20111;-83
2022/03/29 06:16:20;;;;;;;28.27;20.13;;;;;;;;;;4804107;29;20054;-83
2022/03/29 06:18:47;;;;;;;27.10;18.63;;;;;;;;;;4822831;29;20062;-83
2022/03/29 06:21:13;;;;;;;23.27;17.90;;;;;;;;;;4803608;29;20133;-83
2022/03/29 06:23:39;;;;;;;25.80;18.77;;;;;;;;;;4803546;29;20049;-83
2022/03/29 06:26:05;;;;;;;27.80;20.08;;;;;;;;;;4801118;29;20090;-82
2022/03/29 06:28:31;;;;;;;24.83;18.58;;;;;;;;;;4817228;29;20399;-80
2022/03/29 06:30:57;;;;;;;27.92;19.90;;;;;;;;;;4824027;29;20125;-83
2022/03/29 06:33:23;;;;;;;30.98;18.92;;;;;;;;;;4824519;29;20149;-82
2022/03/29 06:35:49;;;;;;;23.65;17.75;;;;;;;;;;4830634;29;20091;-84
2022/03/29 06:38:21;;;;;;;25.40;19.35;;;;;;;;;;4822385;29;20066;-85
2022/03/29 06:40:47;;;;;;;28.02;19.38;;;;;;;;;;4816915;29;20050;-85
2022/03/29 06:43:13;;;;;;;24.50;18.95;;;;;;;;;;4806043;29;20070;-84
2022/03/29 06:45:40;;;;;;;26.73;20.08;;;;;;;;;;4821683;29;20050;-84
2022/03/29 06:48:07;;;;;;;27.45;20.00;;;;;;;;;;4805327;29;20053;-83
2022/03/29 06:50:34;;;;;;;24.15;19.23;;;;;;;;;;4822036;29;20060;-84
2022/03/29 06:53:09;;;;;;;28.65;19.55;;;;;;;;;;4806366;29;20087;-83
2022/03/29 06:55:36;;;;;;;23.50;18.50;;;;;;;;;;4819563;29;20051;-83
2022/03/29 06:58:03;;;;;;;28.30;19.92;;;;;;;;;;4823312;29;20050;-82
2022/03/29 07:00:29;;;;;;;29.17;19.58;;;;;;;;;;4819805;29;20050;-82
2022/03/29 07:02:55;;;;;;;30.08;20.38;;;;;;;;;;4822364;29;20238;-83
2022/03/29 07:05:21;;;;;;;25.88;20.10;;;;;;;;;;4828359;29;20057;-82
2022/03/29 07:07:47;;;;;;;26.23;18.48;;;;;;;;;;4824402;29;20082;-84
2022/03/29 07:12:59;;;;;;;27.75;19.13;;;;;;;;;;4804359;29;20054;-83
2022/03/29 07:15:26;;;;;;;27.15;19.60;;;;;;;;;;4818745;29;20550;-83
2022/03/29 07:17:52;;;;;;;23.48;18.85;;;;;;;;;;4821855;29;20515;-83
2022/03/29 07:20:21;;;;;;;24.13;18.38;;;;;;;;;;4820179;29;20138;-82
2022/03/29 07:22:51;;;;;;;24.65;19.30;;;;;;;;;;4803032;29;20051;-83
2022/03/29 07:25:18;;;;;;;25.77;19.55;;;;;;;;;;4804503;29;20047;-83
2022/03/29 07:27:44;;;;;;;23.63;17.70;;;;;;;;;;4825033;29;20443;-83
2022/03/29 07:30:11;;;;;;;25.48;17.45;;;;;;;;;;4803436;29;20046;-82
2022/03/29 07:33:03;;;;;;;22.58;17.40;;;;;;;;;;4824735;29;20099;-82
2022/03/29 07:35:29;;;;;;;24.42;16.95;;;;;;;;;;4804697;29;20399;-85
2022/03/29 07:37:56;;;;;;;21.92;17.08;;;;;;;;;;4825033;29;20058;-84
2022/03/29 07:40:25;;;;;;;22.88;17.60;;;;;;;;;;4807534;29;20078;-82
2022/03/29 07:42:52;;;;;;;23.23;16.38;;;;;;;;;;4805444;29;20440;-82
2022/03/29 07:45:18;;;;;;;21.48;16.60;;;;;;;;;;4820513;29;20520;-83
2022/03/29 07:47:48;;;;;;;21.80;16.52;;;;;;;;;;4824543;29;20092;-81
2022/03/29 07:50:14;;;;;;;24.02;17.17;;;;;;;;;;4822533;29;20111;-82
2022/03/29 07:52:41;;;;;;;25.65;17.88;;;;;;;;;;4822888;29;20038;-82
2022/03/29 07:55:10;;;;;;;21.73;15.90;;;;;;;;;;4822403;29;20160;-82
2022/03/29 07:57:37;;;;;;;22.08;16.15;;;;;;;;;;4823016;29;20046;-82
2022/03/29 08:00:31;;;;;;;22.50;16.58;;;;;;;;;;4820842;29;20399;-83
2022/03/29 08:02:50;;;;;;;22.45;16.00;;;;;;;;;;4795530;29;20146;-82
2022/03/29 08:05:16;;;;;;;24.67;16.60;;;;;;;;;;4817924;29;20046;-82
2022/03/29 08:07:52;;;;;;;27.00;16.08;;;;;;;;;;4820121;29;20046;-82
2022/03/29 08:10:18;;;;;;;20.42;15.50;;;;;;;;;;4807353;29;20407;-83
2022/03/29 08:12:44;;;;;;;27.55;16.02;;;;;;;;;;4800603;29;20119;-82
2022/03/29 08:15:10;;;;;;;21.98;16.60;;;;;;;;;;4801588;29;20061;-83
2022/03/29 08:17:37;;;;;;;23.23;16.48;;;;;;;;;;4801164;29;20215;-81
2022/03/29 08:20:07;;;;;;;20.15;15.48;;;;;;;;;;4800734;29;20054;-81
2022/03/29 08:22:33;;;;;;;25.90;16.25;;;;;;;;;;4800524;29;20065;-82
2022/03/29 08:25:00;;;;;;;23.92;15.52;;;;;;;;;;4806834;29;20053;-82
2022/03/29 08:27:26;;;;;;;23.60;16.13;;;;;;;;;;4798397;29;20115;-82
2022/03/29 08:29:52;;;;;;;27.10;16.85;;;;;;;;;;4801050;29;20043;-82
2022/03/29 08:32:19;;;;;;;22.52;16.40;;;;;;;;;;4803179;29;20508;-83
2022/03/29 08:34:45;;;;;;;21.63;16.25;;;;;;;;;;4803870;29;20054;-82
2022/03/29 08:37:11;;;;;;;20.63;16.25;;;;;;;;;;4803677;29;20055;-83
2022/03/29 08:39:37;;;;;;;27.67;16.98;;;;;;;;;;4797982;29;20126;-83
2022/03/29 08:42:14;;;;;;;21.83;16.05;;;;;;;;;;4803195;29;20074;-83
2022/03/29 08:44:40;;;;;;;23.70;16.77;;;;;;;;;;4803219;29;20138;-82
2022/03/29 08:47:07;;;;;;;28.00;16.48;;;;;;;;;;4805079;29;20039;-83
2022/03/29 08:49:33;;;;;;;22.52;16.60;;;;;;;;;;4803341;29;20515;-83
2022/03/29 08:51:59;;;;;;;21.05;15.13;;;;;;;;;;4801844;29;20523;-84
2022/03/29 08:54:25;;;;;;;24.02;16.25;;;;;;;;;;4802822;29;20055;-83
2022/03/29 08:56:51;;;;;;;21.63;16.83;;;;;;;;;;4802498;29;20046;-83
2022/03/29 08:59:18;;;;;;;25.02;17.17;;;;;;;;;;4801195;29;20046;-83
2022/03/29 09:01:44;;;;;;;22.67;15.80;;;;;;;;;;4797748;29;20081;-83
2022/03/29 09:04:14;;;;;;;23.35;15.73;;;;;;;;;;4799319;29;20446;-83
2022/03/29 09:06:54;;;;;;;24.70;15.65;;;;;;;;;;4798173;29;20054;-83
2022/03/29 09:09:29;;;;;;;22.98;15.50;;;;;;;;;;4801042;29;20089;-82
2022/03/29 09:11:57;;;;;;;22.60;15.45;;;;;;;;;;4805966;29;20046;-83
2022/03/29 09:14:23;;;;;;;22.63;15.60;;;;;;;;;;4805287;29;20093;-82
2022/03/29 09:16:51;;;;;;;20.45;15.38;;;;;;;;;;4821556;29;20053;-82
2022/03/29 09:19:18;;;;;;;18.25;14.77;;;;;;;;;;4820314;29;20390;-82
2022/03/29 09:21:45;;;;;;;20.98;15.45;;;;;;;;;;4797876;29;20046;-82
2022/03/29 09:24:15;;;;;;;19.50;14.45;;;;;;;;;;4821980;29;20046;-84
2022/03/29 09:26:52;;;;;;;19.55;14.77;;;;;;;;;;4823630;29;20046;-83
2022/03/29 09:29:26;;;;;;;19.73;15.18;;;;;;;;;;4818796;29;20515;-83
2022/03/29 09:32:09;;;;;;;19.42;13.65;;;;;;;;;;4801287;29;20051;-83
2022/03/29 09:34:35;;;;;;;18.60;13.73;;;;;;;;;;4805669;29;20568;-83
2022/03/29 09:37:02;;;;;;;20.20;12.63;;;;;;;;;;4821305;29;20054;-84
2022/03/29 09:39:41;;;;;;;22.15;12.15;;;;;;;;;;4805574;29;20058;-84
2022/03/29 09:42:15;;;;;;;23.00;12.52;;;;;;;;;;4816931;29;20125;-84
2022/03/29 09:44:43;;;;;;;20.27;12.70;;;;;;;;;;4804003;29;20134;-83
2022/03/29 09:47:12;;;;;;;20.70;12.80;;;;;;;;;;4821947;29;20074;-84
2022/03/29 09:49:57;;;;;;;16.85;12.48;;;;;;;;;;4821278;29;20401;-83
2022/03/29 09:52:27;;;;;;;19.13;12.90;;;;;;;;;;4816013;29;20047;-83
2022/03/29 09:55:13;;;;;;;19.20;12.13;;;;;;;;;;4806444;29;20046;-83
2022/03/29 09:57:59;;;;;;;19.30;12.68;;;;;;;;;;4821685;29;20087;-83
2022/03/29 10:00:25;;;;;;;22.85;12.63;;;;;;;;;;4821424;29;20050;-83
2022/03/29 10:02:52;;;;;;;18.85;11.35;;;;;;;;;;4821144;29;20054;-83
2022/03/29 10:05:19;;;;;;;16.15;11.02;;;;;;;;;;4795142;29;20107;-83
2022/03/29 10:07:46;;;;;;;20.55;12.50;;;;;;;;;;4800349;29;20052;-83
2022/03/29 10:10:12;;;;;;;21.30;12.07;;;;;;;;;;4822723;29;20043;-83
2022/03/29 10:12:39;;;;;;;20.73;12.20;;;;;;;;;;4798155;29;20055;-82
2022/03/29 10:15:06;;;;;;;18.35;11.63;;;;;;;;;;4802943;29;20055;-83
2022/03/29 10:17:32;;;;;;;16.75;11.80;;;;;;;;;;4803209;29;20353;-82
2022/03/29 10:19:59;;;;;;;17.38;11.73;;;;;;;;;;4803556;29;20054;-83
2022/03/29 10:22:26;;;;;;;16.83;11.32;;;;;;;;;;4801536;29;20062;-84
2022/03/29 10:24:53;;;;;;;18.60;11.77;;;;;;;;;;4803631;29;20070;-82
2022/03/29 10:27:20;;;;;;;18.98;11.98;;;;;;;;;;4799728;29;20051;-82
2022/03/29 10:29:46;;;;;;;20.10;11.65;;;;;;;;;;4801892;29;20070;-83
2022/03/29 10:32:27;;;;;;;18.55;12.30;;;;;;;;;;4802408;29;20055;-83
2022/03/29 10:35:04;;;;;;;16.58;11.95;;;;;;;;;;4802490;29;20095;-83
2022/03/29 10:37:32;;;;;;;15.07;11.45;;;;;;;;;;4801302;29;20500;-83
2022/03/29 10:40:03;;;;;;;19.52;11.63;;;;;;;;;;4801332;29;20102;-84
2022/03/29 10:42:38;;;;;;;15.07;10.25;;;;;;;;;;4801284;29;20126;-82
2022/03/29 10:45:10;;;;;;;15.85;11.15;;;;;;;;;;4798244;29;20561;-82
2022/03/29 10:47:36;;;;;;;18.23;10.95;;;;;;;;;;4801999;29;20082;-82
2022/03/29 10:50:04;;;;;;;17.13;10.45;;;;;;;;;;4801795;29;20082;-83
2022/03/29 10:52:36;;;;;;;16.77;10.20;;;;;;;;;;4803218;29;20112;-83
2022/03/29 10:55:16;;;;;;;18.63;10.25;;;;;;;;;;4794625;29;20051;-82
2022/03/29 10:58:02;;;;;;;13.68;9.45;;;;;;;;;;4802090;29;20053;-83
2022/03/29 11:00:31;;;;;;;14.48;9.93;;;;;;;;;;4801277;29;20051;-82
2022/03/29 11:03:10;;;;;;;14.48;9.55;;;;;;;;;;4802582;29;20123;-82
2022/03/29 11:05:55;;;;;;;13.52;9.25;;;;;;;;;;4803543;29;20138;-82
2022/03/29 11:08:21;;;;;;;13.52;8.88;;;;;;;;;;4802522;29;20115;-83
2022/03/29 11:10:47;;;;;;;15.18;10.05;;;;;;;;;;4803390;29;20043;-83
2022/03/29 11:13:23;;;;;;;13.05;9.02;;;;;;;;;;4800947;29;20055;-83
2022/03/29 11:15:49;;;;;;;12.43;9.40;;;;;;;;;;4796894;29;20107;-82
2022/03/29 11:18:48;;;;;;;14.88;9.70;;;;;;;;;;4803015;29;20050;-83
2022/03/29 11:21:28;;;;;;;17.27;8.77;;;;;;;;;;4780430;29;20051;-83
2022/03/29 11:23:57;;;;;;;14.43;8.85;;;;;;;;;;4791067;29;20051;-83
2022/03/29 11:26:24;;;;;;;13.93;8.20;;;;;;;;;;4800818;29;20508;-82
2022/03/29 11:28:54;;;;;;;17.33;9.82;;;;;;;;;;4801039;29;20396;-82
2022/03/29 11:31:21;;;;;;;13.63;8.02;;;;;;;;;;4798174;29;20058;-82
2022/03/29 11:33:51;;;;;;;13.65;8.65;;;;;;;;;;4801841;29;20038;-83
2022/03/29 11:36:19;;;;;;;12.32;8.48;;;;;;;;;;4800864;29;20107;-83
2022/03/29 11:38:45;;;;;;;16.20;9.18;;;;;;;;;;4797643;29;20507;-83
2022/03/29 11:41:28;;;;;;;12.32;8.25;;;;;;;;;;4799609;29;20093;-83
2022/03/29 11:43:55;;;;;;;13.20;8.15;;;;;;;;;;4801861;29;20080;-82
2022/03/29 11:46:21;;;;;;;15.60;7.53;;;;;;;;;;4798637;29;20062;-82
2022/03/29 11:48:49;;;;;;;16.17;8.18;;;;;;;;;;4802920;29;20180;-82
2022/03/29 11:51:16;;;;;;;14.02;8.23;;;;;;;;;;4801151;29;20178;-83
2022/03/29 11:53:42;;;;;;;12.57;8.10;;;;;;;;;;4800521;29;20042;-84
2022/03/29 11:56:08;;;;;;;13.18;7.93;;;;;;;;;;4803840;29;20515;-83
2022/03/29 11:58:40;;;;;;;13.90;7.32;;;;;;;;;;4802473;29;20051;-83
2022/03/29 12:01:17;;;;;;;14.10;7.43;;;;;;;;;;4800834;29;20242;-83
2022/03/29 12:03:46;;;;;;;13.95;7.65;;;;;;;;;;4802851;29;20051;-83
2022/03/29 12:06:19;;;;;;;15.40;7.75;;;;;;;;;;4798678;29;20527;-83
2022/03/29 12:08:49;;;;;;;13.32;8.30;;;;;;;;;;4798931;29;20047;-84
2022/03/29 12:11:20;;;;;;;15.32;7.75;;;;;;;;;;4802025;29;20341;-84
2022/03/29 12:13:46;;;;;;;14.77;7.78;;;;;;;;;;4814140;29;20062;-84
2022/03/29 12:16:23;;;;;;;16.60;8.55;;;;;;;;;;4822891;29;20146;-83
2022/03/29 12:18:49;;;;;;;13.57;8.45;;;;;;;;;;4807537;29;20061;-81
2022/03/29 12:21:17;;;;;;;16.63;8.38;;;;;;;;;;4819975;29;20057;-81
2022/03/29 12:23:44;;;;;;;16.65;8.82;;;;;;;;;;4818101;29;20512;-82
2022/03/29 12:26:11;;;;;;;12.80;8.25;;;;;;;;;;4822267;29;20496;-81
2022/03/29 12:28:38;;;;;;;12.02;8.70;;;;;;;;;;4823013;29;20053;-81
2022/03/29 12:31:04;;;;;;;12.60;7.80;;;;;;;;;;4806626;29;20103;-81
2022/03/29 12:33:33;;;;;;;14.95;8.55;;;;;;;;;;4822134;29;20527;-83
2022/03/29 12:36:03;;;;;;;11.85;7.78;;;;;;;;;;4821298;29;20050;-82
2022/03/29 12:38:39;;;;;;;15.43;9.15;;;;;;;;;;4821974;29;20514;-82
2022/03/29 12:41:05;;;;;;;15.02;9.57;;;;;;;;;;4820466;29;20056;-83
2022/03/29 12:43:33;;;;;;;14.75;9.30;;;;;;;;;;4823636;29;20042;-82
2022/03/29 12:46:00;;;;;;;13.43;8.95;;;;;;;;;;4808152;29;20138;-82
2022/03/29 12:48:28;;;;;;;14.35;8.85;;;;;;;;;;4821408;29;20090;-82
2022/03/29 12:50:54;;;;;;;13.70;9.40;;;;;;;;;;4824028;29;20062;-82
2022/03/29 12:53:20;;;;;;;13.38;8.50;;;;;;;;;;4822874;29;20609;-82
2022/03/29 12:55:54;;;;;;;14.75;8.95;;;;;;;;;;4800562;29;20149;-82
2022/03/29 12:58:29;;;;;;;15.50;8.80;;;;;;;;;;4805823;29;20055;-82
2022/03/29 13:00:56;;;;;;;13.70;8.65;;;;;;;;;;4805277;29;20064;-82
2022/03/29 13:03:22;;;;;;;13.65;9.00;;;;;;;;;;4821798;29;20054;-82
2022/03/29 13:05:48;;;;;;;13.38;8.32;;;;;;;;;;4806594;29;20444;-82
2022/03/29 13:08:23;;;;;;;14.48;8.88;;;;;;;;;;4822153;29;20084;-83
2022/03/29 13:10:50;;;;;;;14.32;8.70;;;;;;;;;;4818260;29;20514;-84
2022/03/29 13:13:29;;;;;;;16.63;8.90;;;;;;;;;;4822773;29;20447;-84
2022/03/29 13:15:55;;;;;;;15.90;8.57;;;;;;;;;;4799882;29;20127;-84
2022/03/29 13:18:22;;;;;;;15.57;9.32;;;;;;;;;;4806662;29;20046;-84
2022/03/29 13:20:48;;;;;;;11.50;8.50;;;;;;;;;;4818178;29;20054;-84
2022/03/29 13:23:28;;;;;;;14.18;8.48;;;;;;;;;;4798089;29;20066;-83
2022/03/29 13:25:54;;;;;;;12.80;9.10;;;;;;;;;;4821320;29;20054;-83
2022/03/29 13:28:20;;;;;;;13.90;8.65;;;;;;;;;;4822375;29;20042;-83
2022/03/29 13:30:46;;;;;;;16.27;8.77;;;;;;;;;;4821116;29;20061;-84
2022/03/29 13:33:13;;;;;;;16.17;9.10;;;;;;;;;;4823698;29;20471;-83
2022/03/29 13:35:44;;;;;;;12.77;8.60;;;;;;;;;;4806919;29;20129;-83
2022/03/29 13:38:10;;;;;;;12.15;8.80;;;;;;;;;;4806049;29;20121;-83
2022/03/29 13:40:42;;;;;;;14.40;8.75;;;;;;;;;;4822229;29;20038;-83
2022/03/29 13:43:08;;;;;;;12.68;8.27;;;;;;;;;;4821811;29;20061;-84
2022/03/29 13:45:34;;;;;;;13.68;8.88;;;;;;;;;;4822679;29;20038;-83
2022/03/29 13:48:03;;;;;;;15.82;9.23;;;;;;;;;;4823070;29;20089;-83
2022/03/29 13:50:29;;;;;;;12.93;8.32;;;;;;;;;;4819666;29;20119;-84
2022/03/29 13:52:55;;;;;;;13.77;8.90;;;;;;;;;;4822006;29;20065;-83
2022/03/29 13:55:21;;;;;;;15.07;8.10;;;;;;;;;;4805299;29;20050;-83
2022/03/29 13:57:47;;;;;;;13.05;9.15;;;;;;;;;;4817868;29;20047;-83
2022/03/29 14:00:15;;;;;;;14.38;9.05;;;;;;;;;;4805541;29;20517;-83
2022/03/29 14:02:41;;;;;;;11.65;8.23;;;;;;;;;;4821647;29;20050;-83
2022/03/29 14:05:08;;;;;;;12.27;8.02;;;;;;;;;;4803279;29;20055;-83
2022/03/29 14:07:34;;;;;;;11.27;8.02;;;;;;;;;;4822639;29;20050;-81
2022/03/29 14:10:00;;;;;;;12.80;8.15;;;;;;;;;;4824430;29;20081;-84
2022/03/29 14:12:26;;;;;;;12.55;7.80;;;;;;;;;;4801683;29;20113;-85
2022/03/29 14:14:52;;;;;;;11.20;8.10;;;;;;;;;;4803691;29;20046;-85
2022/03/29 14:17:18;;;;;;;9.95;8.00;;;;;;;;;;4803555;29;20061;-83
2022/03/29 14:19:49;;;;;;;12.82;8.15;;;;;;;;;;4801101;29;20480;-84
2022/03/29 14:22:15;;;;;;;13.18;8.40;;;;;;;;;;4802668;29;20050;-85
2022/03/29 14:24:41;;;;;;;10.43;7.55;;;;;;;;;;4804778;29;20049;-85
2022/03/29 14:27:07;;;;;;;10.95;7.47;;;;;;;;;;4803521;29;20133;-85
2022/03/29 14:29:33;;;;;;;11.18;8.10;;;;;;;;;;4804080;29;20043;-85
2022/03/29 14:32:02;;;;;;;9.73;7.20;;;;;;;;;;4804547;29;20053;-84